sensor_id;sensor_type;location;lat;lon;timestamp;P1;durP1;ratioP1;P2;durP2;ratioP2
63259;SDS011;49390;51.380;0.098;2023-03-20T00:02:21;14.48;;;3.80;;
63259;SDS011;49390;51.380;0.098;2023-03-20T00:04:50;8.95;;;3.00;;
63259;SDS011;49390;51.380;0.098;2023-03-20T00:07:21;8.52;;;3.35;;
63259;SDS011;49390;51.380;0.098;2023-03-20T00:09:49;6.90;;;3.25;;
63259;SDS011;49390;51.380;0.098;2023-03-20T00:12:19;13.00;;;3.35;;
63259;SDS011;49390;51.380;0.098;2023-03-20T00:14:50;12.30;;;3.38;;
63259;SDS011;49390;51.380;0.098;2023-03-20T00:17:19;9.13;;;3.15;;
63259;SDS011;49390;51.380;0.098;2023-03-20T00:19:47;10.27;;;3.75;;
63259;SDS011;49390;51.380;0.098;2023-03-20T00:22:16;11.65;;;3.25;;
63259;SDS011;49390;51.380;0.098;2023-03-20T00:24:43;9.32;;;3.40;;
63259;SDS011;49390;51.380;0.098;2023-03-20T00:27:12;10.18;;;3.22;;
63259;SDS011;49390;51.380;0.098;2023-03-20T00:29:42;8.80;;;3.75;;
63259;SDS011;49390;51.380;0.098;2023-03-20T00:32:15;9.02;;;3.30;;
63259;SDS011;49390;51.380;0.098;2023-03-20T00:34:43;7.43;;;3.13;;
63259;SDS011;49390;51.380;0.098;2023-03-20T00:37:12;11.60;;;3.47;;
63259;SDS011;49390;51.380;0.098;2023-03-20T00:39:40;9.88;;;3.60;;
63259;SDS011;49390;51.380;0.098;2023-03-20T00:42:11;11.20;;;3.72;;
63259;SDS011;49390;51.380;0.098;2023-03-20T00:44:51;8.63;;;3.17;;
63259;SDS011;49390;51.380;0.098;2023-03-20T00:47:25;10.02;;;3.20;;
63259;SDS011;49390;51.380;0.098;2023-03-20T00:49:54;7.88;;;3.22;;
63259;SDS011;49390;51.380;0.098;2023-03-20T00:52:22;10.13;;;3.75;;
63259;SDS011;49390;51.380;0.098;2023-03-20T00:54:51;8.25;;;3.30;;
63259;SDS011;49390;51.380;0.098;2023-03-20T00:57:21;11.05;;;3.90;;
63259;SDS011;49390;51.380;0.098;2023-03-20T00:59:57;8.32;;;3.22;;
63259;SDS011;49390;51.380;0.098;2023-03-20T01:02:28;8.60;;;3.35;;
63259;SDS011;49390;51.380;0.098;2023-03-20T01:04:59;11.10;;;3.80;;
63259;SDS011;49390;51.380;0.098;2023-03-20T01:07:27;11.68;;;3.40;;
63259;SDS011;49390;51.380;0.098;2023-03-20T01:09:55;9.65;;;3.42;;
63259;SDS011;49390;51.380;0.098;2023-03-20T01:12:23;11.30;;;3.53;;
63259;SDS011;49390;51.380;0.098;2023-03-20T01:14:52;10.27;;;3.80;;
63259;SDS011;49390;51.380;0.098;2023-03-20T01:17:23;7.13;;;2.95;;
63259;SDS011;49390;51.380;0.098;2023-03-20T01:19:53;8.88;;;3.03;;
63259;SDS011;49390;51.380;0.098;2023-03-20T01:22:21;9.52;;;3.72;;
63259;SDS011;49390;51.380;0.098;2023-03-20T01:24:49;11.13;;;3.30;;
63259;SDS011;49390;51.380;0.098;2023-03-20T01:27:17;8.68;;;3.50;;
63259;SDS011;49390;51.380;0.098;2023-03-20T01:29:46;10.35;;;2.97;;
63259;SDS011;49390;51.380;0.098;2023-03-20T01:32:16;9.63;;;3.65;;
63259;SDS011;49390;51.380;0.098;2023-03-20T01:34:48;10.40;;;3.60;;
63259;SDS011;49390;51.380;0.098;2023-03-20T01:37:27;10.75;;;3.03;;
63259;SDS011;49390;51.380;0.098;2023-03-20T01:40:00;9.40;;;2.85;;
63259;SDS011;49390;51.380;0.098;2023-03-20T01:42:31;10.18;;;3.45;;
63259;SDS011;49390;51.380;0.098;2023-03-20T01:44:59;12.23;;;3.90;;
63259;SDS011;49390;51.380;0.098;2023-03-20T01:47:28;17.48;;;3.65;;
63259;SDS011;49390;51.380;0.098;2023-03-20T01:52:47;8.73;;;3.10;;
63259;SDS011;49390;51.380;0.098;2023-03-20T01:55:19;9.68;;;3.47;;
63259;SDS011;49390;51.380;0.098;2023-03-20T01:57:54;10.93;;;3.17;;
63259;SDS011;49390;51.380;0.098;2023-03-20T02:00:25;9.52;;;3.22;;
63259;SDS011;49390;51.380;0.098;2023-03-20T02:02:53;16.83;;;3.72;;
63259;SDS011;49390;51.380;0.098;2023-03-20T02:05:44;12.23;;;3.40;;
63259;SDS011;49390;51.380;0.098;2023-03-20T02:08:23;10.40;;;3.15;;
63259;SDS011;49390;51.380;0.098;2023-03-20T02:10:55;12.68;;;3.28;;
63259;SDS011;49390;51.380;0.098;2023-03-20T02:13:29;10.15;;;3.20;;
63259;SDS011;49390;51.380;0.098;2023-03-20T02:16:14;12.57;;;3.88;;
63259;SDS011;49390;51.380;0.098;2023-03-20T02:18:59;11.45;;;3.38;;
63259;SDS011;49390;51.380;0.098;2023-03-20T02:51:56;9.63;;;3.05;;
63259;SDS011;49390;51.380;0.098;2023-03-20T02:54:45;10.30;;;3.17;;
63259;SDS011;49390;51.380;0.098;2023-03-20T03:05:57;7.30;;;2.75;;
63259;SDS011;49390;51.380;0.098;2023-03-20T03:08:30;12.82;;;3.13;;
63259;SDS011;49390;51.380;0.098;2023-03-20T03:11:04;9.63;;;3.28;;
63259;SDS011;49390;51.380;0.098;2023-03-20T03:13:40;13.75;;;2.92;;
63259;SDS011;49390;51.380;0.098;2023-03-20T03:19:12;10.82;;;3.20;;
63259;SDS011;49390;51.380;0.098;2023-03-20T03:21:45;10.13;;;3.55;;
63259;SDS011;49390;51.380;0.098;2023-03-20T03:24:23;9.00;;;2.90;;
63259;SDS011;49390;51.380;0.098;2023-03-20T03:27:19;15.00;;;2.95;;
63259;SDS011;49390;51.380;0.098;2023-03-20T03:29:57;8.98;;;3.10;;
63259;SDS011;49390;51.380;0.098;2023-03-20T03:32:36;9.43;;;3.20;;
63259;SDS011;49390;51.380;0.098;2023-03-20T03:37:58;9.60;;;3.38;;
63259;SDS011;49390;51.380;0.098;2023-03-20T03:40:45;8.73;;;3.00;;
63259;SDS011;49390;51.380;0.098;2023-03-20T03:43:45;10.85;;;3.00;;
63259;SDS011;49390;51.380;0.098;2023-03-20T03:49:06;13.43;;;3.20;;
63259;SDS011;49390;51.380;0.098;2023-03-20T03:51:37;10.20;;;3.95;;
63259;SDS011;49390;51.380;0.098;2023-03-20T03:54:12;13.85;;;3.50;;
63259;SDS011;49390;51.380;0.098;2023-03-20T03:57:11;9.13;;;3.30;;
63259;SDS011;49390;51.380;0.098;2023-03-20T03:59:44;13.13;;;3.55;;
63259;SDS011;49390;51.380;0.098;2023-03-20T04:02:16;11.77;;;2.85;;
63259;SDS011;49390;51.380;0.098;2023-03-20T04:04:47;11.00;;;2.95;;
63259;SDS011;49390;51.380;0.098;2023-03-20T04:09:45;10.93;;;2.88;;
63259;SDS011;49390;51.380;0.098;2023-03-20T04:12:20;7.53;;;2.83;;
63259;SDS011;49390;51.380;0.098;2023-03-20T04:15:13;8.32;;;3.00;;
63259;SDS011;49390;51.380;0.098;2023-03-20T04:17:43;9.05;;;2.78;;
63259;SDS011;49390;51.380;0.098;2023-03-20T04:20:13;9.32;;;3.00;;
63259;SDS011;49390;51.380;0.098;2023-03-20T04:22:42;8.90;;;3.03;;
63259;SDS011;49390;51.380;0.098;2023-03-20T04:25:22;7.95;;;2.63;;
63259;SDS011;49390;51.380;0.098;2023-03-20T04:27:54;10.07;;;3.00;;
63259;SDS011;49390;51.380;0.098;2023-03-20T04:30:30;9.82;;;2.88;;
63259;SDS011;49390;51.380;0.098;2023-03-20T04:33:24;9.93;;;3.45;;
63259;SDS011;49390;51.380;0.098;2023-03-20T04:36:19;10.23;;;2.83;;
63259;SDS011;49390;51.380;0.098;2023-03-20T04:38:50;8.65;;;2.40;;
63259;SDS011;49390;51.380;0.098;2023-03-20T04:41:20;8.30;;;2.58;;
63259;SDS011;49390;51.380;0.098;2023-03-20T04:43:53;12.10;;;3.05;;
63259;SDS011;49390;51.380;0.098;2023-03-20T04:46:22;9.45;;;3.13;;
63259;SDS011;49390;51.380;0.098;2023-03-20T04:48:50;9.70;;;3.08;;
63259;SDS011;49390;51.380;0.098;2023-03-20T04:51:18;12.43;;;3.00;;
63259;SDS011;49390;51.380;0.098;2023-03-20T04:53:54;8.90;;;2.63;;
63259;SDS011;49390;51.380;0.098;2023-03-20T04:56:22;12.07;;;2.83;;
63259;SDS011;49390;51.380;0.098;2023-03-20T04:58:53;7.97;;;2.75;;
63259;SDS011;49390;51.380;0.098;2023-03-20T05:01:21;5.15;;;2.40;;
63259;SDS011;49390;51.380;0.098;2023-03-20T05:03:50;12.35;;;2.90;;
63259;SDS011;49390;51.380;0.098;2023-03-20T05:06:19;15.73;;;2.83;;
63259;SDS011;49390;51.380;0.098;2023-03-20T05:08:48;10.10;;;2.47;;
63259;SDS011;49390;51.380;0.098;2023-03-20T05:11:17;9.80;;;2.78;;
63259;SDS011;49390;51.380;0.098;2023-03-20T05:14:21;7.63;;;2.35;;
63259;SDS011;49390;51.380;0.098;2023-03-20T05:17:08;9.82;;;2.50;;
63259;SDS011;49390;51.380;0.098;2023-03-20T05:19:51;9.77;;;3.22;;
63259;SDS011;49390;51.380;0.098;2023-03-20T05:22:39;9.88;;;3.42;;
63259;SDS011;49390;51.380;0.098;2023-03-20T05:25:12;11.07;;;2.80;;
63259;SDS011;49390;51.380;0.098;2023-03-20T05:27:59;14.82;;;3.95;;
63259;SDS011;49390;51.380;0.098;2023-03-20T05:30:59;10.88;;;2.75;;
63259;SDS011;49390;51.380;0.098;2023-03-20T05:33:50;11.88;;;3.40;;
63259;SDS011;49390;51.380;0.098;2023-03-20T05:36:35;8.75;;;2.58;;
63259;SDS011;49390;51.380;0.098;2023-03-20T05:39:29;13.60;;;3.05;;
63259;SDS011;49390;51.380;0.098;2023-03-20T05:42:08;10.77;;;2.90;;
63259;SDS011;49390;51.380;0.098;2023-03-20T05:44:47;13.30;;;3.00;;
63259;SDS011;49390;51.380;0.098;2023-03-20T05:47:45;11.90;;;3.17;;
63259;SDS011;49390;51.380;0.098;2023-03-20T05:50:43;10.68;;;2.85;;
63259;SDS011;49390;51.380;0.098;2023-03-20T05:53:16;14.32;;;3.47;;
63259;SDS011;49390;51.380;0.098;2023-03-20T05:56:02;12.82;;;3.50;;
63259;SDS011;49390;51.380;0.098;2023-03-20T05:58:48;10.98;;;3.70;;
63259;SDS011;49390;51.380;0.098;2023-03-20T06:01:34;12.95;;;3.55;;
63259;SDS011;49390;51.380;0.098;2023-03-20T06:04:26;12.68;;;3.80;;
63259;SDS011;49390;51.380;0.098;2023-03-20T06:07:13;15.13;;;3.45;;
63259;SDS011;49390;51.380;0.098;2023-03-20T06:09:46;12.82;;;3.63;;
63259;SDS011;49390;51.380;0.098;2023-03-20T06:12:14;17.60;;;4.00;;
63259;SDS011;49390;51.380;0.098;2023-03-20T06:14:43;14.32;;;4.35;;
63259;SDS011;49390;51.380;0.098;2023-03-20T06:17:11;14.23;;;4.82;;
63259;SDS011;49390;51.380;0.098;2023-03-20T06:19:40;9.32;;;3.22;;
63259;SDS011;49390;51.380;0.098;2023-03-20T06:22:10;12.75;;;3.80;;
63259;SDS011;49390;51.380;0.098;2023-03-20T06:24:39;16.33;;;3.85;;
63259;SDS011;49390;51.380;0.098;2023-03-20T06:27:12;14.98;;;3.92;;
63259;SDS011;49390;51.380;0.098;2023-03-20T06:29:40;13.95;;;3.92;;
63259;SDS011;49390;51.380;0.098;2023-03-20T06:32:16;15.15;;;4.40;;
63259;SDS011;49390;51.380;0.098;2023-03-20T06:34:47;9.68;;;3.30;;
63259;SDS011;49390;51.380;0.098;2023-03-20T06:37:18;12.43;;;3.55;;
63259;SDS011;49390;51.380;0.098;2023-03-20T06:39:47;12.70;;;3.25;;
63259;SDS011;49390;51.380;0.098;2023-03-20T06:42:16;11.73;;;3.47;;
63259;SDS011;49390;51.380;0.098;2023-03-20T06:44:46;13.48;;;3.75;;
63259;SDS011;49390;51.380;0.098;2023-03-20T06:47:18;11.88;;;3.50;;
63259;SDS011;49390;51.380;0.098;2023-03-20T06:49:46;13.80;;;3.95;;
63259;SDS011;49390;51.380;0.098;2023-03-20T06:52:15;8.57;;;3.30;;
63259;SDS011;49390;51.380;0.098;2023-03-20T06:54:50;14.80;;;3.50;;
63259;SDS011;49390;51.380;0.098;2023-03-20T06:57:19;11.02;;;3.40;;
63259;SDS011;49390;51.380;0.098;2023-03-20T06:59:47;9.80;;;4.03;;
63259;SDS011;49390;51.380;0.098;2023-03-20T07:02:14;13.50;;;3.40;;
63259;SDS011;49390;51.380;0.098;2023-03-20T07:04:43;15.82;;;3.85;;
63259;SDS011;49390;51.380;0.098;2023-03-20T07:07:11;11.27;;;3.90;;
63259;SDS011;49390;51.380;0.098;2023-03-20T07:09:40;12.52;;;3.83;;
63259;SDS011;49390;51.380;0.098;2023-03-20T07:12:12;12.77;;;4.40;;
63259;SDS011;49390;51.380;0.098;2023-03-20T07:14:42;15.10;;;4.65;;
63259;SDS011;49390;51.380;0.098;2023-03-20T07:17:15;11.57;;;4.10;;
63259;SDS011;49390;51.380;0.098;2023-03-20T07:19:43;13.00;;;4.28;;
63259;SDS011;49390;51.380;0.098;2023-03-20T07:22:20;21.05;;;5.38;;
63259;SDS011;49390;51.380;0.098;2023-03-20T07:24:55;12.13;;;4.00;;
63259;SDS011;49390;51.380;0.098;2023-03-20T07:27:24;14.70;;;4.40;;
63259;SDS011;49390;51.380;0.098;2023-03-20T07:29:54;11.80;;;4.07;;
63259;SDS011;49390;51.380;0.098;2023-03-20T07:32:23;13.55;;;4.05;;
63259;SDS011;49390;51.380;0.098;2023-03-20T07:34:54;11.23;;;4.30;;
63259;SDS011;49390;51.380;0.098;2023-03-20T07:37:22;11.50;;;4.65;;
63259;SDS011;49390;51.380;0.098;2023-03-20T07:40:02;14.32;;;4.30;;
63259;SDS011;49390;51.380;0.098;2023-03-20T07:42:40;14.80;;;4.53;;
63259;SDS011;49390;51.380;0.098;2023-03-20T07:45:13;11.82;;;4.10;;
63259;SDS011;49390;51.380;0.098;2023-03-20T07:47:44;12.05;;;4.65;;
63259;SDS011;49390;51.380;0.098;2023-03-20T07:50:13;12.88;;;4.30;;
63259;SDS011;49390;51.380;0.098;2023-03-20T07:52:47;11.57;;;4.07;;
63259;SDS011;49390;51.380;0.098;2023-03-20T07:55:20;9.63;;;4.43;;
63259;SDS011;49390;51.380;0.098;2023-03-20T07:57:48;10.00;;;3.97;;
63259;SDS011;49390;51.380;0.098;2023-03-20T08:00:17;8.57;;;4.22;;
63259;SDS011;49390;51.380;0.098;2023-03-20T08:02:46;7.85;;;4.25;;
63259;SDS011;49390;51.380;0.098;2023-03-20T08:05:14;13.40;;;4.15;;
63259;SDS011;49390;51.380;0.098;2023-03-20T08:07:42;15.02;;;5.10;;
63259;SDS011;49390;51.380;0.098;2023-03-20T08:10:12;8.45;;;4.38;;
63259;SDS011;49390;51.380;0.098;2023-03-20T08:12:42;13.05;;;4.90;;
63259;SDS011;49390;51.380;0.098;2023-03-20T08:15:11;8.27;;;4.63;;
63259;SDS011;49390;51.380;0.098;2023-03-20T08:17:42;13.15;;;4.20;;
63259;SDS011;49390;51.380;0.098;2023-03-20T08:20:12;10.00;;;4.30;;
63259;SDS011;49390;51.380;0.098;2023-03-20T08:22:45;11.60;;;4.60;;
63259;SDS011;49390;51.380;0.098;2023-03-20T08:25:16;14.32;;;4.82;;
63259;SDS011;49390;51.380;0.098;2023-03-20T08:27:44;10.18;;;4.20;;
63259;SDS011;49390;51.380;0.098;2023-03-20T08:30:12;12.85;;;5.10;;
63259;SDS011;49390;51.380;0.098;2023-03-20T08:32:40;9.82;;;4.55;;
63259;SDS011;49390;51.380;0.098;2023-03-20T08:35:11;11.20;;;4.78;;
63259;SDS011;49390;51.380;0.098;2023-03-20T08:37:58;14.38;;;5.20;;
63259;SDS011;49390;51.380;0.098;2023-03-20T08:40:26;11.60;;;5.22;;
63259;SDS011;49390;51.380;0.098;2023-03-20T08:42:55;8.80;;;3.95;;
63259;SDS011;49390;51.380;0.098;2023-03-20T08:45:23;8.07;;;4.03;;
63259;SDS011;49390;51.380;0.098;2023-03-20T08:47:52;11.05;;;4.82;;
63259;SDS011;49390;51.380;0.098;2023-03-20T08:50:23;11.13;;;4.78;;
63259;SDS011;49390;51.380;0.098;2023-03-20T08:52:51;8.00;;;4.05;;
63259;SDS011;49390;51.380;0.098;2023-03-20T08:55:19;7.82;;;4.32;;
63259;SDS011;49390;51.380;0.098;2023-03-20T08:57:47;9.00;;;3.80;;
63259;SDS011;49390;51.380;0.098;2023-03-20T09:00:15;8.98;;;3.95;;
63259;SDS011;49390;51.380;0.098;2023-03-20T09:02:47;7.07;;;3.50;;
63259;SDS011;49390;51.380;0.098;2023-03-20T09:05:16;9.82;;;3.30;;
63259;SDS011;49390;51.380;0.098;2023-03-20T09:07:43;7.00;;;3.30;;
63259;SDS011;49390;51.380;0.098;2023-03-20T09:10:12;7.93;;;3.30;;
63259;SDS011;49390;51.380;0.098;2023-03-20T09:12:39;5.97;;;2.78;;
63259;SDS011;49390;51.380;0.098;2023-03-20T09:15:08;7.90;;;3.08;;
63259;SDS011;49390;51.380;0.098;2023-03-20T09:17:36;7.50;;;3.03;;
63259;SDS011;49390;51.380;0.098;2023-03-20T09:20:04;6.32;;;2.60;;
63259;SDS011;49390;51.380;0.098;2023-03-20T09:22:32;6.85;;;2.90;;
63259;SDS011;49390;51.380;0.098;2023-03-20T09:25:00;5.25;;;2.45;;
63259;SDS011;49390;51.380;0.098;2023-03-20T09:27:28;5.60;;;2.67;;
63259;SDS011;49390;51.380;0.098;2023-03-20T09:29:56;5.65;;;2.47;;
63259;SDS011;49390;51.380;0.098;2023-03-20T09:32:24;4.88;;;2.35;;
63259;SDS011;49390;51.380;0.098;2023-03-20T09:34:52;7.20;;;2.63;;
63259;SDS011;49390;51.380;0.098;2023-03-20T09:37:20;8.80;;;3.15;;
63259;SDS011;49390;51.380;0.098;2023-03-20T09:39:48;4.70;;;2.65;;
63259;SDS011;49390;51.380;0.098;2023-03-20T09:52:56;6.00;;;3.00;;
63259;SDS011;49390;51.380;0.098;2023-03-20T09:55:43;8.00;;;3.45;;
63259;SDS011;49390;51.380;0.098;2023-03-20T09:58:17;6.88;;;3.03;;
63259;SDS011;49390;51.380;0.098;2023-03-20T10:00:57;7.25;;;3.10;;
63259;SDS011;49390;51.380;0.098;2023-03-20T10:06:16;4.88;;;2.50;;
63259;SDS011;49390;51.380;0.098;2023-03-20T10:08:44;6.53;;;3.20;;
63259;SDS011;49390;51.380;0.098;2023-03-20T10:19:20;8.15;;;3.53;;
63259;SDS011;49390;51.380;0.098;2023-03-20T10:21:57;8.23;;;3.50;;
63259;SDS011;49390;51.380;0.098;2023-03-20T10:27:24;12.98;;;5.05;;
63259;SDS011;49390;51.380;0.098;2023-03-20T10:33:06;7.97;;;4.00;;
63259;SDS011;49390;51.380;0.098;2023-03-20T10:41:16;5.57;;;3.33;;
63259;SDS011;49390;51.380;0.098;2023-03-20T10:43:52;10.90;;;3.20;;
63259;SDS011;49390;51.380;0.098;2023-03-20T10:46:23;5.65;;;2.92;;
63259;SDS011;49390;51.380;0.098;2023-03-20T10:49:09;5.90;;;2.83;;
63259;SDS011;49390;51.380;0.098;2023-03-20T10:51:46;5.45;;;3.08;;
63259;SDS011;49390;51.380;0.098;2023-03-20T10:54:22;6.75;;;3.35;;
63259;SDS011;49390;51.380;0.098;2023-03-20T10:56:51;8.38;;;4.05;;
63259;SDS011;49390;51.380;0.098;2023-03-20T10:59:23;4.72;;;2.50;;
63259;SDS011;49390;51.380;0.098;2023-03-20T11:02:00;5.85;;;3.20;;
63259;SDS011;49390;51.380;0.098;2023-03-20T11:04:28;6.05;;;3.42;;
63259;SDS011;49390;51.380;0.098;2023-03-20T11:07:01;6.10;;;3.58;;
63259;SDS011;49390;51.380;0.098;2023-03-20T11:09:38;6.28;;;3.17;;
63259;SDS011;49390;51.380;0.098;2023-03-20T11:12:12;6.80;;;3.97;;
63259;SDS011;49390;51.380;0.098;2023-03-20T11:14:43;5.35;;;3.00;;
63259;SDS011;49390;51.380;0.098;2023-03-20T11:17:11;4.65;;;2.70;;
63259;SDS011;49390;51.380;0.098;2023-03-20T11:19:40;3.78;;;2.50;;
63259;SDS011;49390;51.380;0.098;2023-03-20T11:24:55;4.45;;;2.45;;
63259;SDS011;49390;51.380;0.098;2023-03-20T11:27:29;5.38;;;2.58;;
63259;SDS011;49390;51.380;0.098;2023-03-20T11:30:00;3.95;;;2.10;;
63259;SDS011;49390;51.380;0.098;2023-03-20T11:32:32;2.75;;;1.88;;
63259;SDS011;49390;51.380;0.098;2023-03-20T11:35:10;3.40;;;1.95;;
63259;SDS011;49390;51.380;0.098;2023-03-20T11:37:49;4.25;;;2.20;;
63259;SDS011;49390;51.380;0.098;2023-03-20T11:40:32;4.22;;;2.28;;
63259;SDS011;49390;51.380;0.098;2023-03-20T11:45:41;4.10;;;2.22;;
63259;SDS011;49390;51.380;0.098;2023-03-20T11:48:19;3.38;;;1.83;;
63259;SDS011;49390;51.380;0.098;2023-03-20T11:56:01;5.40;;;2.50;;
63259;SDS011;49390;51.380;0.098;2023-03-20T11:58:30;4.25;;;2.60;;
63259;SDS011;49390;51.380;0.098;2023-03-20T12:00:59;5.05;;;3.42;;
63259;SDS011;49390;51.380;0.098;2023-03-20T12:06:11;6.80;;;3.80;;
63259;SDS011;49390;51.380;0.098;2023-03-20T12:08:42;7.03;;;3.60;;
63259;SDS011;49390;51.380;0.098;2023-03-20T12:20:22;5.85;;;3.10;;
63259;SDS011;49390;51.380;0.098;2023-03-20T12:25:46;6.97;;;3.17;;
63259;SDS011;49390;51.380;0.098;2023-03-20T12:28:27;7.30;;;3.35;;
63259;SDS011;49390;51.380;0.098;2023-03-20T12:33:48;6.65;;;4.10;;
63259;SDS011;49390;51.380;0.098;2023-03-20T12:36:21;7.93;;;3.78;;
63259;SDS011;49390;51.380;0.098;2023-03-20T12:38:57;8.20;;;3.72;;
63259;SDS011;49390;51.380;0.098;2023-03-20T12:58:01;7.25;;;3.65;;
63259;SDS011;49390;51.380;0.098;2023-03-20T13:03:37;8.75;;;4.47;;
63259;SDS011;49390;51.380;0.098;2023-03-20T13:14:27;7.63;;;4.15;;
63259;SDS011;49390;51.380;0.098;2023-03-20T13:17:08;9.20;;;4.80;;
63259;SDS011;49390;51.380;0.098;2023-03-20T13:39:36;6.03;;;3.20;;
63259;SDS011;49390;51.380;0.098;2023-03-20T13:42:14;8.98;;;4.03;;
63259;SDS011;49390;51.380;0.098;2023-03-20T13:44:47;5.88;;;3.10;;
63259;SDS011;49390;51.380;0.098;2023-03-20T13:47:24;7.18;;;4.28;;
63259;SDS011;49390;51.380;0.098;2023-03-20T13:49:59;8.93;;;3.72;;
63259;SDS011;49390;51.380;0.098;2023-03-20T13:52:33;6.32;;;3.30;;
63259;SDS011;49390;51.380;0.098;2023-03-20T14:03:50;4.88;;;2.63;;
63259;SDS011;49390;51.380;0.098;2023-03-20T14:08:58;6.35;;;2.28;;
63259;SDS011;49390;51.380;0.098;2023-03-20T14:11:27;3.78;;;2.22;;
63259;SDS011;49390;51.380;0.098;2023-03-20T14:14:07;2.28;;;1.90;;
63259;SDS011;49390;51.380;0.098;2023-03-20T14:16:41;3.47;;;2.15;;
63259;SDS011;49390;51.380;0.098;2023-03-20T14:19:18;4.88;;;2.70;;
63259;SDS011;49390;51.380;0.098;2023-03-20T14:21:52;5.20;;;2.70;;
63259;SDS011;49390;51.380;0.098;2023-03-20T14:24:22;5.25;;;2.72;;
63259;SDS011;49390;51.380;0.098;2023-03-20T14:26:53;6.90;;;2.30;;
63259;SDS011;49390;51.380;0.098;2023-03-20T14:29:31;2.60;;;1.88;;
63259;SDS011;49390;51.380;0.098;2023-03-20T14:32:02;3.90;;;1.88;;
63259;SDS011;49390;51.380;0.098;2023-03-20T14:34:52;3.35;;;2.17;;
63259;SDS011;49390;51.380;0.098;2023-03-20T14:40:37;7.28;;;4.80;;
63259;SDS011;49390;51.380;0.098;2023-03-20T14:43:31;7.18;;;4.13;;
63259;SDS011;49390;51.380;0.098;2023-03-20T14:46:16;4.30;;;2.72;;
63259;SDS011;49390;51.380;0.098;2023-03-20T14:48:59;4.53;;;2.95;;
63259;SDS011;49390;51.380;0.098;2023-03-20T14:51:45;3.65;;;2.40;;
63259;SDS011;49390;51.380;0.098;2023-03-20T14:56:48;3.97;;;2.30;;
63259;SDS011;49390;51.380;0.098;2023-03-20T14:59:21;3.55;;;2.10;;
63259;SDS011;49390;51.380;0.098;2023-03-20T15:01:55;3.03;;;2.20;;
63259;SDS011;49390;51.380;0.098;2023-03-20T15:04:30;3.30;;;2.20;;
63259;SDS011;49390;51.380;0.098;2023-03-20T15:09:48;3.50;;;2.20;;
63259;SDS011;49390;51.380;0.098;2023-03-20T15:12:20;2.78;;;1.90;;
63259;SDS011;49390;51.380;0.098;2023-03-20T15:14:55;4.07;;;2.35;;
63259;SDS011;49390;51.380;0.098;2023-03-20T15:17:27;4.07;;;2.40;;
63259;SDS011;49390;51.380;0.098;2023-03-20T15:23:01;5.00;;;1.75;;
63259;SDS011;49390;51.380;0.098;2023-03-20T15:25:32;3.13;;;2.00;;
63259;SDS011;49390;51.380;0.098;2023-03-20T15:28:06;4.20;;;2.10;;
63259;SDS011;49390;51.380;0.098;2023-03-20T15:30:36;2.75;;;1.80;;
63259;SDS011;49390;51.380;0.098;2023-03-20T15:33:06;4.43;;;2.40;;
63259;SDS011;49390;51.380;0.098;2023-03-20T15:35:41;4.07;;;2.50;;
63259;SDS011;49390;51.380;0.098;2023-03-20T15:38:12;4.72;;;2.90;;
63259;SDS011;49390;51.380;0.098;2023-03-20T15:40:43;3.65;;;2.47;;
63259;SDS011;49390;51.380;0.098;2023-03-20T15:45:49;3.58;;;2.30;;
63259;SDS011;49390;51.380;0.098;2023-03-20T15:48:38;3.85;;;2.38;;
63259;SDS011;49390;51.380;0.098;2023-03-20T15:51:07;5.85;;;2.47;;
63259;SDS011;49390;51.380;0.098;2023-03-20T15:53:37;3.88;;;2.20;;
63259;SDS011;49390;51.380;0.098;2023-03-20T15:56:16;3.28;;;2.05;;
63259;SDS011;49390;51.380;0.098;2023-03-20T15:58:49;4.80;;;2.42;;
63259;SDS011;49390;51.380;0.098;2023-03-20T16:01:20;4.05;;;1.98;;
63259;SDS011;49390;51.380;0.098;2023-03-20T16:03:50;3.97;;;2.20;;
63259;SDS011;49390;51.380;0.098;2023-03-20T16:06:20;3.67;;;2.17;;
63259;SDS011;49390;51.380;0.098;2023-03-20T16:09:24;2.78;;;1.92;;
63259;SDS011;49390;51.380;0.098;2023-03-20T16:11:45;2.97;;;2.10;;
63259;SDS011;49390;51.380;0.098;2023-03-20T16:14:19;3.47;;;2.20;;
63259;SDS011;49390;51.380;0.098;2023-03-20T16:16:50;2.72;;;1.90;;
63259;SDS011;49390;51.380;0.098;2023-03-20T16:19:20;2.83;;;1.92;;
63259;SDS011;49390;51.380;0.098;2023-03-20T16:21:51;2.60;;;1.77;;
63259;SDS011;49390;51.380;0.098;2023-03-20T16:24:29;5.93;;;2.10;;
63259;SDS011;49390;51.380;0.098;2023-03-20T16:27:05;3.95;;;2.10;;
63259;SDS011;49390;51.380;0.098;2023-03-20T16:29:35;3.70;;;2.15;;
63259;SDS011;49390;51.380;0.098;2023-03-20T16:32:05;4.97;;;2.15;;
63259;SDS011;49390;51.380;0.098;2023-03-20T16:34:45;3.40;;;2.13;;
63259;SDS011;49390;51.380;0.098;2023-03-20T16:37:24;3.40;;;2.10;;
63259;SDS011;49390;51.380;0.098;2023-03-20T16:40:02;2.83;;;1.88;;
63259;SDS011;49390;51.380;0.098;2023-03-20T16:42:31;3.60;;;2.20;;
63259;SDS011;49390;51.380;0.098;2023-03-20T16:44:59;3.25;;;1.90;;
63259;SDS011;49390;51.380;0.098;2023-03-20T16:47:33;4.72;;;1.88;;
63259;SDS011;49390;51.380;0.098;2023-03-20T16:52:39;3.70;;;2.15;;
63259;SDS011;49390;51.380;0.098;2023-03-20T16:55:12;3.10;;;1.80;;
63259;SDS011;49390;51.380;0.098;2023-03-20T16:58:02;3.25;;;1.98;;
63259;SDS011;49390;51.380;0.098;2023-03-20T17:00:40;3.55;;;2.00;;
63259;SDS011;49390;51.380;0.098;2023-03-20T17:03:12;3.55;;;2.03;;
63259;SDS011;49390;51.380;0.098;2023-03-20T17:08:16;2.83;;;2.05;;
63259;SDS011;49390;51.380;0.098;2023-03-20T17:11:09;3.03;;;1.92;;
63259;SDS011;49390;51.380;0.098;2023-03-20T17:13:40;4.38;;;2.00;;
63259;SDS011;49390;51.380;0.098;2023-03-20T17:16:09;4.43;;;2.20;;
63259;SDS011;49390;51.380;0.098;2023-03-20T17:18:46;4.22;;;2.33;;
63259;SDS011;49390;51.380;0.098;2023-03-20T17:23:52;3.40;;;2.13;;
63259;SDS011;49390;51.380;0.098;2023-03-20T17:26:20;4.32;;;2.25;;
63259;SDS011;49390;51.380;0.098;2023-03-20T17:28:48;4.72;;;2.30;;
63259;SDS011;49390;51.380;0.098;2023-03-20T17:31:16;3.85;;;2.10;;
63259;SDS011;49390;51.380;0.098;2023-03-20T17:33:45;3.75;;;1.88;;
63259;SDS011;49390;51.380;0.098;2023-03-20T17:38:48;3.35;;;1.80;;
63259;SDS011;49390;51.380;0.098;2023-03-20T17:41:16;3.50;;;1.70;;
63259;SDS011;49390;51.380;0.098;2023-03-20T17:43:46;3.20;;;1.77;;
63259;SDS011;49390;51.380;0.098;2023-03-20T17:46:20;3.75;;;1.80;;
63259;SDS011;49390;51.380;0.098;2023-03-20T17:48:55;5.30;;;1.80;;
63259;SDS011;49390;51.380;0.098;2023-03-20T17:51:29;2.53;;;1.80;;
63259;SDS011;49390;51.380;0.098;2023-03-20T17:53:58;2.78;;;1.85;;
63259;SDS011;49390;51.380;0.098;2023-03-20T17:56:26;1.95;;;1.63;;
63259;SDS011;49390;51.380;0.098;2023-03-20T17:59:00;1.88;;;1.58;;
63259;SDS011;49390;51.380;0.098;2023-03-20T18:01:29;2.50;;;1.52;;
63259;SDS011;49390;51.380;0.098;2023-03-20T18:03:59;2.28;;;1.80;;
63259;SDS011;49390;51.380;0.098;2023-03-20T18:06:27;2.35;;;1.75;;
63259;SDS011;49390;51.380;0.098;2023-03-20T18:08:57;3.00;;;1.90;;
63259;SDS011;49390;51.380;0.098;2023-03-20T18:11:26;2.47;;;1.55;;
63259;SDS011;49390;51.380;0.098;2023-03-20T18:13:55;2.63;;;1.70;;
63259;SDS011;49390;51.380;0.098;2023-03-20T18:16:23;2.60;;;1.63;;
63259;SDS011;49390;51.380;0.098;2023-03-20T18:18:53;4.25;;;2.03;;
63259;SDS011;49390;51.380;0.098;2023-03-20T18:21:21;4.28;;;2.30;;
63259;SDS011;49390;51.380;0.098;2023-03-20T18:23:49;3.53;;;2.20;;
63259;SDS011;49390;51.380;0.098;2023-03-20T18:26:21;2.50;;;2.05;;
63259;SDS011;49390;51.380;0.098;2023-03-20T18:28:53;2.35;;;1.85;;
63259;SDS011;49390;51.380;0.098;2023-03-20T18:31:22;3.83;;;2.40;;
63259;SDS011;49390;51.380;0.098;2023-03-20T18:33:51;3.67;;;2.30;;
63259;SDS011;49390;51.380;0.098;2023-03-20T18:36:20;2.85;;;2.10;;
63259;SDS011;49390;51.380;0.098;2023-03-20T18:38:50;3.00;;;2.20;;